sensor_id;sensor_type;location;lat;lon;timestamp;pressure;altitude;pressure_sealevel;temperature;humidity
47530;BME280;33272;51.922;7.730;2023-04-15T00:02:14;143993.38;;;6.01;100.00
47530;BME280;33272;51.922;7.730;2023-04-15T00:04:44;143998.44;;;6.03;100.00
47530;BME280;33272;51.922;7.730;2023-04-15T00:07:11;143995.94;;;6.02;100.00
47530;BME280;33272;51.922;7.730;2023-04-15T00:09:40;143997.19;;;6.03;100.00
47530;BME280;33272;51.922;7.730;2023-04-15T00:12:07;144002.19;;;6.05;100.00
47530;BME280;33272;51.922;7.730;2023-04-15T00:14:34;143993.38;;;6.01;100.00
47530;BME280;33272;51.922;7.730;2023-04-15T00:17:02;143982.03;;;5.97;100.00
47530;BME280;33272;51.922;7.730;2023-04-15T00:19:30;143969.34;;;5.92;100.00
47530;BME280;33272;51.922;7.730;2023-04-15T00:21:59;143963.00;;;5.89;100.00
47530;BME280;33272;51.922;7.730;2023-04-15T00:24:26;143960.50;;;5.88;100.00
47530;BME280;33272;51.922;7.730;2023-04-15T00:26:53;143963.00;;;5.89;100.00
47530;BME280;33272;51.922;7.730;2023-04-15T00:29:20;143952.94;;;5.85;100.00
47530;BME280;33272;51.922;7.730;2023-04-15T00:31:47;143942.84;;;5.81;100.00
47530;BME280;33272;51.922;7.730;2023-04-15T00:34:14;143935.28;;;5.78;100.00
47530;BME280;33272;51.922;7.730;2023-04-15T00:36:42;143925.19;;;5.74;100.00
47530;BME280;33272;51.922;7.730;2023-04-15T00:39:10;143913.81;;;5.69;100.00
47530;BME280;33272;51.922;7.730;2023-04-15T00:41:38;143898.66;;;5.63;100.00
47530;BME280;33272;51.922;7.730;2023-04-15T00:44:05;143884.75;;;5.57;100.00
47530;BME280;33272;51.922;7.730;2023-04-15T00:46:35;143877.19;;;5.54;100.00
47530;BME280;33272;51.922;7.730;2023-04-15T00:49:04;143869.63;;;5.51;100.00
47530;BME280;33272;51.922;7.730;2023-04-15T00:51:32;143878.50;;;5.55;100.00
47530;BME280;33272;51.922;7.730;2023-04-15T00:54:01;143882.25;;;5.56;100.00
47530;BME280;33272;51.922;7.730;2023-04-15T00:56:30;143891.09;;;5.60;100.00
47530;BME280;33272;51.922;7.730;2023-04-15T00:59:01;143899.91;;;5.64;100.00
47530;BME280;33272;51.922;7.730;2023-04-15T01:01:28;143898.66;;;5.63;100.00
47530;BME280;33272;51.922;7.730;2023-04-15T01:03:56;143893.59;;;5.61;100.00
47530;BME280;33272;51.922;7.730;2023-04-15T01:06:24;143899.91;;;5.64;100.00
47530;BME280;33272;51.922;7.730;2023-04-15T01:08:52;143898.66;;;5.63;100.00
47530;BME280;33272;51.922;7.730;2023-04-15T01:11:20;143896.16;;;5.62;100.00
47530;BME280;33272;51.922;7.730;2023-04-15T01:13:48;143891.09;;;5.60;100.00
47530;BME280;33272;51.922;7.730;2023-04-15T01:16:18;143874.69;;;5.53;100.00
47530;BME280;33272;51.922;7.730;2023-04-15T01:18:46;143859.53;;;5.47;100.00
47530;BME280;33272;51.922;7.730;2023-04-15T01:21:13;143863.34;;;5.49;100.00
47530;BME280;33272;51.922;7.730;2023-04-15T01:23:40;143870.91;;;5.52;100.00
47530;BME280;33272;51.922;7.730;2023-04-15T01:26:08;143869.63;;;5.51;100.00
47530;BME280;33272;51.922;7.730;2023-04-15T01:28:36;143863.34;;;5.49;100.00
47530;BME280;33272;51.922;7.730;2023-04-15T01:31:08;143864.59;;;5.49;100.00
47530;BME280;33272;51.922;7.730;2023-04-15T01:33:35;143863.34;;;5.49;100.00
47530;BME280;33272;51.922;7.730;2023-04-15T01:36:03;143862.03;;;5.48;100.00
47530;BME280;33272;51.922;7.730;2023-04-15T01:38:31;143858.28;;;5.47;100.00
47530;BME280;33272;51.922;7.730;2023-04-15T01:40:59;143853.22;;;5.45;100.00
47530;BME280;33272;51.922;7.730;2023-04-15T01:43:28;143853.22;;;5.45;100.00
47530;BME280;33272;51.922;7.730;2023-04-15T01:45:55;143846.91;;;5.42;100.00
47530;BME280;33272;51.922;7.730;2023-04-15T01:48:22;143830.50;;;5.35;100.00
47530;BME280;33272;51.922;7.730;2023-04-15T01:50:49;143816.66;;;5.30;100.00
47530;BME280;33272;51.922;7.730;2023-04-15T01:53:17;143796.47;;;5.22;100.00
47530;BME280;33272;51.922;7.730;2023-04-15T01:55:44;143781.31;;;5.16;100.00
47530;BME280;33272;51.922;7.730;2023-04-15T01:58:11;143762.41;;;5.08;100.00
47530;BME280;33272;51.922;7.730;2023-04-15T02:00:39;143742.22;;;5.00;100.00
47530;BME280;33272;51.922;7.730;2023-04-15T02:03:07;143728.31;;;4.94;100.00
47530;BME280;33272;51.922;7.730;2023-04-15T02:05:34;143714.44;;;4.88;100.00
47530;BME280;33272;51.922;7.730;2023-04-15T02:08:01;143696.81;;;4.81;100.00
47530;BME280;33272;51.922;7.730;2023-04-15T02:10:28;143681.66;;;4.75;100.00
47530;BME280;33272;51.922;7.730;2023-04-15T02:12:55;143676.66;;;4.73;100.00
47530;BME280;33272;51.922;7.730;2023-04-15T02:15:22;143665.28;;;4.69;100.00
47530;BME280;33272;51.922;7.730;2023-04-15T02:17:51;143661.53;;;4.67;100.00
47530;BME280;33272;51.922;7.730;2023-04-15T02:20:20;143653.94;;;4.64;100.00
47530;BME280;33272;51.922;7.730;2023-04-15T02:22:48;143640.06;;;4.58;100.00
47530;BME280;33272;51.922;7.730;2023-04-15T02:25:15;143631.25;;;4.55;100.00
47530;BME280;33272;51.922;7.730;2023-04-15T02:27:43;143621.13;;;4.51;100.00
47530;BME280;33272;51.922;7.730;2023-04-15T02:30:10;143611.06;;;4.47;100.00
47530;BME280;33272;51.922;7.730;2023-04-15T02:32:37;143601.00;;;4.43;100.00
47530;BME280;33272;51.922;7.730;2023-04-15T02:35:07;143602.25;;;4.43;100.00
47530;BME280;33272;51.922;7.730;2023-04-15T02:37:36;143612.31;;;4.47;100.00
47530;BME280;33272;51.922;7.730;2023-04-15T02:40:08;143628.69;;;4.54;100.00
47530;BME280;33272;51.922;7.730;2023-04-15T02:42:37;143632.50;;;4.55;100.00
47530;BME280;33272;51.922;7.730;2023-04-15T02:45:06;143638.81;;;4.58;100.00
47530;BME280;33272;51.922;7.730;2023-04-15T02:47:33;143643.84;;;4.60;100.00
47530;BME280;33272;51.922;7.730;2023-04-15T02:50:02;143646.38;;;4.61;100.00
47530;BME280;33272;51.922;7.730;2023-04-15T02:52:31;143650.16;;;4.62;100.00
47530;BME280;33272;51.922;7.730;2023-04-15T02:54:58;143656.47;;;4.65;100.00
47530;BME280;33272;51.922;7.730;2023-04-15T02:57:27;143671.59;;;4.71;100.00
47530;BME280;33272;51.922;7.730;2023-04-15T02:59:54;143679.16;;;4.74;100.00
47530;BME280;33272;51.922;7.730;2023-04-15T03:02:21;143681.66;;;4.75;100.00
47530;BME280;33272;51.922;7.730;2023-04-15T03:04:48;143685.47;;;4.77;100.00
47530;BME280;33272;51.922;7.730;2023-04-15T03:07:16;143691.78;;;4.79;100.00
47530;BME280;33272;51.922;7.730;2023-04-15T03:09:45;143687.97;;;4.78;100.00
47530;BME280;33272;51.922;7.730;2023-04-15T03:12:12;143682.91;;;4.76;100.00
47530;BME280;33272;51.922;7.730;2023-04-15T03:14:39;143681.66;;;4.75;100.00
47530;BME280;33272;51.922;7.730;2023-04-15T03:17:06;143685.47;;;4.77;100.00
47530;BME280;33272;51.922;7.730;2023-04-15T03:19:33;143681.66;;;4.75;100.00
47530;BME280;33272;51.922;7.730;2023-04-15T03:22:00;143671.59;;;4.71;100.00
47530;BME280;33272;51.922;7.730;2023-04-15T03:24:27;143669.09;;;4.70;100.00
47530;BME280;33272;51.922;7.730;2023-04-15T03:26:56;143666.53;;;4.69;100.00
47530;BME280;33272;51.922;7.730;2023-04-15T03:29:23;143653.94;;;4.64;100.00
47530;BME280;33272;51.922;7.730;2023-04-15T03:31:51;143643.84;;;4.60;100.00
47530;BME280;33272;51.922;7.730;2023-04-15T03:34:18;143631.25;;;4.55;100.00
47530;BME280;33272;51.922;7.730;2023-04-15T03:36:45;143622.44;;;4.51;100.00
47530;BME280;33272;51.922;7.730;2023-04-15T03:39:12;143621.13;;;4.51;100.00
47530;BME280;33272;51.922;7.730;2023-04-15T03:41:40;143621.13;;;4.51;100.00
47530;BME280;33272;51.922;7.730;2023-04-15T03:44:08;143614.88;;;4.48;100.00
47530;BME280;33272;51.922;7.730;2023-04-15T03:46:35;143614.88;;;4.48;100.00
47530;BME280;33272;51.922;7.730;2023-04-15T03:49:04;143611.06;;;4.47;100.00
47530;BME280;33272;51.922;7.730;2023-04-15T03:51:31;143599.75;;;4.42;100.00
47530;BME280;33272;51.922;7.730;2023-04-15T03:53:58;143590.91;;;4.38;100.00
47530;BME280;33272;51.922;7.730;2023-04-15T03:56:25;143580.81;;;4.34;100.00
47530;BME280;33272;51.922;7.730;2023-04-15T03:58:52;143573.22;;;4.31;100.00
47530;BME280;33272;51.922;7.730;2023-04-15T04:01:20;143575.78;;;4.32;100.00
47530;BME280;33272;51.922;7.730;2023-04-15T04:03:47;143565.66;;;4.28;100.00
47530;BME280;33272;51.922;7.730;2023-04-15T04:06:14;143560.66;;;4.26;100.00
47530;BME280;33272;51.922;7.730;2023-04-15T04:08:41;143558.09;;;4.25;100.00
47530;BME280;33272;51.922;7.730;2023-04-15T04:11:08;143561.91;;;4.27;100.00
47530;BME280;33272;51.922;7.730;2023-04-15T04:13:35;143565.66;;;4.28;100.00
47530;BME280;33272;51.922;7.730;2023-04-15T04:16:03;143571.97;;;4.31;100.00
47530;BME280;33272;51.922;7.730;2023-04-15T04:18:31;143577.03;;;4.33;100.00
47530;BME280;33272;51.922;7.730;2023-04-15T04:20:59;143580.81;;;4.34;100.00
47530;BME280;33272;51.922;7.730;2023-04-15T04:23:26;143589.63;;;4.38;100.00
47530;BME280;33272;51.922;7.730;2023-04-15T04:25:53;143588.38;;;4.37;100.00
47530;BME280;33272;51.922;7.730;2023-04-15T04:28:20;143595.94;;;4.40;100.00
47530;BME280;33272;51.922;7.730;2023-04-15T04:30:47;143606.03;;;4.45;100.00
47530;BME280;33272;51.922;7.730;2023-04-15T04:33:14;143604.75;;;4.44;100.00
47530;BME280;33272;51.922;7.730;2023-04-15T04:35:43;143611.06;;;4.47;100.00
47530;BME280;33272;51.922;7.730;2023-04-15T04:38:10;143616.13;;;4.49;100.00
47530;BME280;33272;51.922;7.730;2023-04-15T04:40:37;143628.69;;;4.54;100.00
47530;BME280;33272;51.922;7.730;2023-04-15T04:43:04;143631.25;;;4.55;100.00
47530;BME280;33272;51.922;7.730;2023-04-15T04:45:31;143638.81;;;4.58;100.00
47530;BME280;33272;51.922;7.730;2023-04-15T04:47:58;143643.84;;;4.60;100.00
47530;BME280;33272;51.922;7.730;2023-04-15T04:50:25;143647.63;;;4.61;100.00
47530;BME280;33272;51.922;7.730;2023-04-15T04:52:53;143662.78;;;4.68;100.00
47530;BME280;33272;51.922;7.730;2023-04-15T04:55:20;143676.66;;;4.73;100.00
47530;BME280;33272;51.922;7.730;2023-04-15T04:57:47;143686.72;;;4.77;100.00
47530;BME280;33272;51.922;7.730;2023-04-15T05:00:14;143699.34;;;4.82;100.00
47530;BME280;33272;51.922;7.730;2023-04-15T05:02:42;143709.44;;;4.86;100.00
47530;BME280;33272;51.922;7.730;2023-04-15T05:05:09;143727.06;;;4.94;100.00
47530;BME280;33272;51.922;7.730;2023-04-15T05:07:37;143746.03;;;5.01;100.00
47530;BME280;33272;51.922;7.730;2023-04-15T05:10:08;143769.97;;;5.11;100.00
47530;BME280;33272;51.922;7.730;2023-04-15T05:12:35;143781.31;;;5.16;100.00
47530;BME280;33272;51.922;7.730;2023-04-15T05:15:04;143810.34;;;5.27;100.00
47530;BME280;33272;51.922;7.730;2023-04-15T05:17:31;143828.00;;;5.34;100.00
47530;BME280;33272;51.922;7.730;2023-04-15T05:20:00;143850.72;;;5.44;100.00
47530;BME280;33272;51.922;7.730;2023-04-15T05:22:27;143869.63;;;5.51;100.00
47530;BME280;33272;51.922;7.730;2023-04-15T05:24:54;143894.88;;;5.62;100.00
47530;BME280;33272;51.922;7.730;2023-04-15T05:27:22;143915.06;;;5.70;100.00
47530;BME280;33272;51.922;7.730;2023-04-15T05:29:49;143937.78;;;5.79;100.00
47530;BME280;33272;51.922;7.730;2023-04-15T05:32:16;143956.75;;;5.87;100.00
47530;BME280;33272;51.922;7.730;2023-04-15T05:34:43;143975.69;;;5.94;100.00
47530;BME280;33272;51.922;7.730;2023-04-15T05:37:11;143995.94;;;6.02;100.00
47530;BME280;33272;51.922;7.730;2023-04-15T05:39:38;144012.34;;;6.09;100.00
47530;BME280;33272;51.922;7.730;2023-04-15T05:42:05;144035.06;;;6.18;100.00
47530;BME280;33272;51.922;7.730;2023-04-15T05:44:33;144059.03;;;6.28;100.00
47530;BME280;33272;51.922;7.730;2023-04-15T05:47:00;144070.38;;;6.33;100.00
47530;BME280;33272;51.922;7.730;2023-04-15T05:49:28;144091.88;;;6.41;100.00
47530;BME280;33272;51.922;7.730;2023-04-15T05:51:55;144107.03;;;6.47;100.00
47530;BME280;33272;51.922;7.730;2023-04-15T05:54:22;144127.22;;;6.56;100.00
47530;BME280;33272;51.922;7.730;2023-04-15T05:56:49;144139.84;;;6.61;100.00
47530;BME280;33272;51.922;7.730;2023-04-15T05:59:16;144157.53;;;6.68;100.00
47530;BME280;33272;51.922;7.730;2023-04-15T06:01:45;144179.00;;;6.77;100.00
47530;BME280;33272;51.922;7.730;2023-04-15T06:04:12;144195.44;;;6.83;100.00
47530;BME280;33272;51.922;7.730;2023-04-15T06:06:40;144210.59;;;6.89;100.00
47530;BME280;33272;51.922;7.730;2023-04-15T06:09:07;144229.56;;;6.97;100.00
47530;BME280;33272;51.922;7.730;2023-04-15T06:11:34;144252.31;;;7.06;100.00
47530;BME280;33272;51.922;7.730;2023-04-15T06:14:01;144276.34;;;7.16;100.00
47530;BME280;33272;51.922;7.730;2023-04-15T06:16:30;144294.00;;;7.23;100.00
47530;BME280;33272;51.922;7.730;2023-04-15T06:18:58;144316.75;;;7.32;100.00
47530;BME280;33272;51.922;7.730;2023-04-15T06:21:25;144336.97;;;7.40;100.00
47530;BME280;33272;51.922;7.730;2023-04-15T06:23:52;144358.47;;;7.49;100.00
47530;BME280;33272;51.922;7.730;2023-04-15T06:26:21;144379.97;;;7.58;100.00
47530;BME280;33272;51.922;7.730;2023-04-15T06:28:48;144391.31;;;7.62;100.00
47530;BME280;33272;51.922;7.730;2023-04-15T06:31:15;144406.50;;;7.69;100.00
47530;BME280;33272;51.922;7.730;2023-04-15T06:33:42;144424.22;;;7.76;100.00
47530;BME280;33272;51.922;7.730;2023-04-15T06:36:11;144436.84;;;7.81;100.00
47530;BME280;33272;51.922;7.730;2023-04-15T06:38:38;144447.00;;;7.85;100.00
47530;BME280;33272;51.922;7.730;2023-04-15T06:41:05;144457.09;;;7.89;100.00
47530;BME280;33272;51.922;7.730;2023-04-15T06:43:32;144471.00;;;7.95;100.00
47530;BME280;33272;51.922;7.730;2023-04-15T06:45:59;144477.28;;;7.97;100.00
47530;BME280;33272;51.922;7.730;2023-04-15T06:48:27;144493.72;;;8.04;100.00
47530;BME280;33272;51.922;7.730;2023-04-15T06:50:54;144505.13;;;8.08;100.00
47530;BME280;33272;51.922;7.730;2023-04-15T06:53:24;144521.56;;;8.15;100.00
47530;BME280;33272;51.922;7.730;2023-04-15T06:55:52;144541.84;;;8.23;100.00
47530;BME280;33272;51.922;7.730;2023-04-15T06:58:19;144569.63;;;8.34;100.00
47530;BME280;33272;51.922;7.730;2023-04-15T07:00:46;144600.06;;;8.47;100.00
47530;BME280;33272;51.922;7.730;2023-04-15T07:03:14;144621.56;;;8.55;100.00
47530;BME280;33272;51.922;7.730;2023-04-15T07:05:41;144654.47;;;8.69;100.00
47530;BME280;33272;51.922;7.730;2023-04-15T07:08:08;144739.25;;;9.03;100.00
47530;BME280;33272;51.922;7.730;2023-04-15T07:10:36;144736.75;;;9.02;100.00
47530;BME280;33272;51.922;7.730;2023-04-15T07:13:04;144768.38;;;9.15;100.00
47530;BME280;33272;51.922;7.730;2023-04-15T07:15:31;144805.06;;;9.29;100.00
47530;BME280;33272;51.922;7.730;2023-04-15T07:17:58;144819.00;;;9.35;100.00
47530;BME280;33272;51.922;7.730;2023-04-15T07:20:25;144824.09;;;9.37;100.00
47530;BME280;33272;51.922;7.730;2023-04-15T07:22:52;144831.69;;;9.40;100.00
47530;BME280;33272;51.922;7.730;2023-04-15T07:25:19;144844.31;;;9.45;100.00
47530;BME280;33272;51.922;7.730;2023-04-15T07:27:48;144851.91;;;9.48;100.00
47530;BME280;33272;51.922;7.730;2023-04-15T07:30:15;144864.59;;;9.54;100.00
47530;BME280;33272;51.922;7.730;2023-04-15T07:32:42;144881.06;;;9.60;100.00
47530;BME280;33272;51.922;7.730;2023-04-15T07:35:09;144915.22;;;9.74;100.00
47530;BME280;33272;51.922;7.730;2023-04-15T07:37:36;144964.66;;;9.94;100.00
47530;BME280;33272;51.922;7.730;2023-04-15T07:40:05;145015.31;;;10.14;100.00
47530;BME280;33272;51.922;7.730;2023-04-15T07:42:33;145080.00;;;10.40;100.00
47530;BME280;33272;51.922;7.730;2023-04-15T07:45:03;145137.03;;;10.63;100.00
47530;BME280;33272;51.922;7.730;2023-04-15T07:47:30;145181.41;;;10.81;100.00
47530;BME280;33272;51.922;7.730;2023-04-15T07:49:57;145227.00;;;11.00;100.00
47530;BME280;33272;51.922;7.730;2023-04-15T07:52:24;145280.28;;;11.21;100.00
47530;BME280;33272;51.922;7.730;2023-04-15T07:54:51;145305.63;;;11.31;100.00
47530;BME280;33272;51.922;7.730;2023-04-15T07:57:19;145303.09;;;11.30;100.00
47530;BME280;33272;51.922;7.730;2023-04-15T07:59:46;145299.31;;;11.29;100.00
47530;BME280;33272;51.922;7.730;2023-04-15T08:02:14;145287.88;;;11.24;100.00
47530;BME280;33272;51.922;7.730;2023-04-15T08:04:41;145246.06;;;11.07;100.00
47530;BME280;33272;51.922;7.730;2023-04-15T08:07:08;145216.88;;;10.96;100.00
47530;BME280;33272;51.922;7.730;2023-04-15T08:09:35;145199.16;;;10.88;100.00
47530;BME280;33272;51.922;7.730;2023-04-15T08:12:03;145194.06;;;10.86;100.00
47530;BME280;33272;51.922;7.730;2023-04-15T08:14:30;145171.25;;;10.77;100.00
47530;BME280;33272;51.922;7.730;2023-04-15T08:16:57;145168.72;;;10.76;100.00
47530;BME280;33272;51.922;7.730;2023-04-15T08:19:25;145175.06;;;10.79;100.00
47530;BME280;33272;51.922;7.730;2023-04-15T08:21:52;145171.25;;;10.77;100.00
47530;BME280;33272;51.922;7.730;2023-04-15T08:24:20;145140.81;;;10.65;100.00
47530;BME280;33272;51.922;7.730;2023-04-15T08:26:47;145143.38;;;10.66;100.00
47530;BME280;33272;51.922;7.730;2023-04-15T08:29:14;145142.06;;;10.65;100.00
47530;BME280;33272;51.922;7.730;2023-04-15T08:31:41;145149.69;;;10.68;100.00
47530;BME280;33272;51.922;7.730;2023-04-15T08:34:08;145157.28;;;10.72;100.00
47530;BME280;33272;51.922;7.730;2023-04-15T08:36:36;145164.88;;;10.75;100.00
47530;BME280;33272;51.922;7.730;2023-04-15T08:39:03;145168.72;;;10.76;100.00
47530;BME280;33272;51.922;7.730;2023-04-15T08:41:40;145181.41;;;10.81;100.00
47530;BME280;33272;51.922;7.730;2023-04-15T08:44:13;145199.16;;;10.88;100.00
47530;BME280;33272;51.922;7.730;2023-04-15T08:46:41;145232.09;;;11.02;100.00
47530;BME280;33272;51.922;7.730;2023-04-15T08:49:11;145256.19;;;11.11;100.00
47530;BME280;33272;51.922;7.730;2023-04-15T08:51:40;145286.63;;;11.24;100.00
47530;BME280;33272;51.922;7.730;2023-04-15T08:54:08;145317.06;;;11.36;100.00
47530;BME280;33272;51.922;7.730;2023-04-15T08:56:37;145319.59;;;11.37;100.00
47530;BME280;33272;51.922;7.730;2023-04-15T08:59:05;145313.25;;;11.34;100.00
47530;BME280;33272;51.922;7.730;2023-04-15T09:01:32;145294.25;;;11.27;100.00
47530;BME280;33272;51.922;7.730;2023-04-15T09:04:01;145292.97;;;11.26;100.00
47530;BME280;33272;51.922;7.730;2023-04-15T09:06:31;145277.75;;;11.20;100.00
47530;BME280;33272;51.922;7.730;2023-04-15T09:08:59;145298.03;;;11.28;100.00
47530;BME280;33272;51.922;7.730;2023-04-15T09:11:26;145298.03;;;11.28;100.00
47530;BME280;33272;51.922;7.730;2023-04-15T09:13:55;145282.81;;;11.22;100.00
47530;BME280;33272;51.922;7.730;2023-04-15T09:16:23;145277.75;;;11.20;100.00
47530;BME280;33272;51.922;7.730;2023-04-15T09:18:50;145253.66;;;11.10;100.00
47530;BME280;33272;51.922;7.730;2023-04-15T09:21:17;145256.19;;;11.11;100.00
47530;BME280;33272;51.922;7.730;2023-04-15T09:23:55;145261.28;;;11.13;100.00
47530;BME280;33272;51.922;7.730;2023-04-15T09:26:32;145261.28;;;11.13;100.00
47530;BME280;33272;51.922;7.730;2023-04-15T09:29:04;145261.28;;;11.13;100.00
47530;BME280;33272;51.922;7.730;2023-04-15T09:31:32;145268.88;;;11.17;100.00
47530;BME280;33272;51.922;7.730;2023-04-15T09:33:59;145279.03;;;11.21;100.00
47530;BME280;33272;51.922;7.730;2023-04-15T09:36:26;145272.66;;;11.18;100.00
47530;BME280;33272;51.922;7.730;2023-04-15T09:38:56;145263.78;;;11.14;100.00
47530;BME280;33272;51.922;7.730;2023-04-15T09:41:25;145249.84;;;11.09;100.00
47530;BME280;33272;51.922;7.730;2023-04-15T09:43:54;145263.78;;;11.14;100.00
47530;BME280;33272;51.922;7.730;2023-04-15T09:46:40;145246.06;;;11.07;100.00
47530;BME280;33272;51.922;7.730;2023-04-15T09:49:08;145219.41;;;10.97;100.00
47530;BME280;33272;51.922;7.730;2023-04-15T09:51:36;145214.38;;;10.95;100.00
47530;BME280;33272;51.922;7.730;2023-04-15T09:54:03;145209.28;;;10.93;100.00
47530;BME280;33272;51.922;7.730;2023-04-15T09:56:33;145192.81;;;10.86;100.00
47530;BME280;33272;51.922;7.730;2023-04-15T09:59:02;145161.13;;;10.73;100.00
47530;BME280;33272;51.922;7.730;2023-04-15T10:01:30;145153.50;;;10.70;100.00
47530;BME280;33272;51.922;7.730;2023-04-15T10:03:58;145123.09;;;10.58;100.00
47530;BME280;33272;51.922;7.730;2023-04-15T10:06:29;145116.72;;;10.55;100.00
47530;BME280;33272;51.922;7.730;2023-04-15T10:08:57;145105.34;;;10.51;100.00
47530;BME280;33272;51.922;7.730;2023-04-15T10:11:28;145119.31;;;10.56;100.00
47530;BME280;33272;51.922;7.730;2023-04-15T10:13:56;145126.91;;;10.59;100.00
47530;BME280;33272;51.922;7.730;2023-04-15T10:16:27;145130.69;;;10.61;100.00
47530;BME280;33272;51.922;7.730;2023-04-15T10:18:55;145152.25;;;10.70;100.00
47530;BME280;33272;51.922;7.730;2023-04-15T10:21:23;145168.72;;;10.76;100.00
47530;BME280;33272;51.922;7.730;2023-04-15T10:23:50;145164.88;;;10.75;100.00
47530;BME280;33272;51.922;7.730;2023-04-15T10:26:18;145161.13;;;10.73;100.00
47530;BME280;33272;51.922;7.730;2023-04-15T10:28:45;145162.38;;;10.74;100.00
47530;BME280;33272;51.922;7.730;2023-04-15T10:31:14;145156.03;;;10.71;100.00
47530;BME280;33272;51.922;7.730;2023-04-15T10:33:45;145159.84;;;10.73;100.00
47530;BME280;33272;51.922;7.730;2023-04-15T10:36:13;145157.28;;;10.72;100.00
47530;BME280;33272;51.922;7.730;2023-04-15T10:38:43;145168.72;;;10.76;100.00
47530;BME280;33272;51.922;7.730;2023-04-15T10:41:16;145195.31;;;10.87;100.00
47530;BME280;33272;51.922;7.730;2023-04-15T10:43:49;145220.72;;;10.97;100.00
47530;BME280;33272;51.922;7.730;2023-04-15T10:46:34;145237.19;;;11.04;100.00
47530;BME280;33272;51.922;7.730;2023-04-15T10:49:08;145252.41;;;11.10;100.00
47530;BME280;33272;51.922;7.730;2023-04-15T10:51:38;145271.41;;;11.18;100.00
47530;BME280;33272;51.922;7.730;2023-04-15T10:54:12;145270.16;;;11.17;100.00
47530;BME280;33272;51.922;7.730;2023-04-15T10:56:41;145248.59;;;11.08;100.00
47530;BME280;33272;51.922;7.730;2023-04-15T10:59:09;145248.59;;;11.08;100.00
47530;BME280;33272;51.922;7.730;2023-04-15T11:01:59;145247.31;;;11.08;100.00
47530;BME280;33272;51.922;7.730;2023-04-15T11:07:37;145281.53;;;11.22;100.00
47530;BME280;33272;51.922;7.730;2023-04-15T11:10:52;145232.09;;;11.02;100.00
47530;BME280;33272;51.922;7.730;2023-04-15T11:13:22;145247.31;;;11.08;100.00
47530;BME280;33272;51.922;7.730;2023-04-15T11:15:58;145232.09;;;11.02;100.00
47530;BME280;33272;51.922;7.730;2023-04-15T11:18:31;145214.38;;;10.95;100.00
47530;BME280;33272;51.922;7.730;2023-04-15T11:21:04;145219.41;;;10.97;100.00
47530;BME280;33272;51.922;7.730;2023-04-15T11:23:37;145200.41;;;10.89;100.00
47530;BME280;33272;51.922;7.730;2023-04-15T11:26:08;145204.19;;;10.90;100.00
47530;BME280;33272;51.922;7.730;2023-04-15T11:28:38;145201.66;;;10.89;100.00
47530;BME280;33272;51.922;7.730;2023-04-15T11:31:07;145199.16;;;10.88;100.00
47530;BME280;33272;51.922;7.730;2023-04-15T11:33:36;145197.88;;;10.88;100.00
47530;BME280;33272;51.922;7.730;2023-04-15T11:36:05;145200.41;;;10.89;100.00
47530;BME280;33272;51.922;7.730;2023-04-15T11:38:33;145210.53;;;10.93;100.00
47530;BME280;33272;51.922;7.730;2023-04-15T11:41:00;145200.41;;;10.89;100.00
47530;BME280;33272;51.922;7.730;2023-04-15T11:43:31;145219.41;;;10.97;100.00
47530;BME280;33272;51.922;7.730;2023-04-15T11:46:01;145209.28;;;10.93;100.00
47530;BME280;33272;51.922;7.730;2023-04-15T11:48:30;145213.09;;;10.94;100.00
47530;BME280;33272;51.922;7.730;2023-04-15T11:51:00;145194.06;;;10.86;100.00
47530;BME280;33272;51.922;7.730;2023-04-15T11:53:37;145180.09;;;10.81;100.00
47530;BME280;33272;51.922;7.730;2023-04-15T11:56:07;145185.19;;;10.83;100.00
47530;BME280;33272;51.922;7.730;2023-04-15T11:58:36;145177.59;;;10.80;100.00
47530;BME280;33272;51.922;7.730;2023-04-15T12:01:05;145172.50;;;10.78;100.00
47530;BME280;33272;51.922;7.730;2023-04-15T12:03:37;145166.19;;;10.75;100.00
47530;BME280;33272;51.922;7.730;2023-04-15T12:06:14;145172.50;;;10.78;100.00
47530;BME280;33272;51.922;7.730;2023-04-15T12:09:08;145152.25;;;10.70;100.00
47530;BME280;33272;51.922;7.730;2023-04-15T12:11:41;145177.59;;;10.80;100.00
47530;BME280;33272;51.922;7.730;2023-04-15T12:14:18;145182.69;;;10.82;100.00
47530;BME280;33272;51.922;7.730;2023-04-15T12:16:47;145191.53;;;10.85;100.00
47530;BME280;33272;51.922;7.730;2023-04-15T12:19:21;145204.19;;;10.90;100.00
47530;BME280;33272;51.922;7.730;2023-04-15T12:21:49;145201.66;;;10.89;100.00
47530;BME280;33272;51.922;7.730;2023-04-15T12:24:20;145211.78;;;10.94;100.00
47530;BME280;33272;51.922;7.730;2023-04-15T12:26:50;145221.97;;;10.98;100.00
47530;BME280;33272;51.922;7.730;2023-04-15T12:29:25;145224.50;;;10.99;100.00
47530;BME280;33272;51.922;7.730;2023-04-15T12:31:54;145219.41;;;10.97;100.00
47530;BME280;33272;51.922;7.730;2023-04-15T12:34:29;145225.75;;;10.99;100.00
47530;BME280;33272;51.922;7.730;2023-04-15T12:36:58;145247.31;;;11.08;100.00
47530;BME280;33272;51.922;7.730;2023-04-15T12:39:27;145262.53;;;11.14;100.00
47530;BME280;33272;51.922;7.730;2023-04-15T12:41:54;145256.19;;;11.11;100.00
47530;BME280;33272;51.922;7.730;2023-04-15T12:44:23;145249.84;;;11.09;100.00
47530;BME280;33272;51.922;7.730;2023-04-15T12:46:50;145237.19;;;11.04;100.00
47530;BME280;33272;51.922;7.730;2023-04-15T12:49:18;145213.09;;;10.94;100.00
47530;BME280;33272;51.922;7.730;2023-04-15T12:51:47;145186.47;;;10.83;100.00
47530;BME280;33272;51.922;7.730;2023-04-15T12:54:15;145172.50;;;10.78;100.00
47530;BME280;33272;51.922;7.730;2023-04-15T12:56:42;145158.59;;;10.72;100.00